createdAt,value
2023-04-01T00:01:28.389Z,99.90
2023-04-01T00:03:55.525Z,99.90
2023-04-01T00:06:22.605Z,99.90
2023-04-01T00:08:49.587Z,99.90
2023-04-01T00:11:17.259Z,99.90
2023-04-01T00:13:44.650Z,99.90
2023-04-01T00:16:20.928Z,99.90
2023-04-01T00:18:49.416Z,99.90
2023-04-01T00:21:16.861Z,99.90
2023-04-01T00:23:44.717Z,99.90
2023-04-01T00:26:13.502Z,99.90
2023-04-01T00:28:41.127Z,99.90
2023-04-01T00:31:09.833Z,99.90
2023-04-01T00:33:37.119Z,99.90
2023-04-01T00:36:11.782Z,99.90
2023-04-01T00:38:39.818Z,99.90
2023-04-01T00:41:07.099Z,99.90
2023-04-01T00:43:35.057Z,99.90
2023-04-01T00:46:02.210Z,99.90
2023-04-01T00:48:35.707Z,99.90
2023-04-01T00:51:07.657Z,99.90
2023-04-01T00:53:37.325Z,99.90
2023-04-01T00:56:18.444Z,99.90
2023-04-01T00:58:49.661Z,99.90
2023-04-01T01:01:16.860Z,99.90
2023-04-01T01:03:43.950Z,99.90
2023-04-01T01:06:32.756Z,99.90
2023-04-01T01:09:29.122Z,99.90
2023-04-01T01:12:05.019Z,99.90
2023-04-01T01:15:02.428Z,99.90
2023-04-01T01:17:54.132Z,99.90
2023-04-01T01:20:29.642Z,99.90
2023-04-01T01:23:19.425Z,99.90
2023-04-01T01:26:08.433Z,99.90
2023-04-01T01:28:59.877Z,99.90
2023-04-01T01:31:37.740Z,99.90
2023-04-01T01:34:31.816Z,99.90
2023-04-01T01:37:06.829Z,99.90
2023-04-01T01:39:35.937Z,99.90
2023-04-01T01:42:06.771Z,99.90
2023-04-01T01:44:35.847Z,99.90
2023-04-01T01:47:03.105Z,99.90
2023-04-01T01:49:33.085Z,99.90
2023-04-01T01:51:59.847Z,99.90
2023-04-01T01:54:26.677Z,99.90
2023-04-01T01:57:00.941Z,99.90
2023-04-01T01:59:29.716Z,99.90
2023-04-01T02:01:59.888Z,99.90
2023-04-01T02:04:28.040Z,99.90
2023-04-01T02:07:01.292Z,99.90
2023-04-01T02:09:28.240Z,99.90
2023-04-01T02:12:02.262Z,99.90
2023-04-01T02:14:51.119Z,99.90
2023-04-01T02:17:27.805Z,99.90
2023-04-01T02:19:58.582Z,99.90
2023-04-01T02:22:28.775Z,99.90
2023-04-01T02:25:00.357Z,99.90
2023-04-01T02:27:27.591Z,99.90
2023-04-01T02:29:54.533Z,99.90
2023-04-01T02:32:22.333Z,99.90
2023-04-01T02:34:49.194Z,99.90
2023-04-01T02:37:16.619Z,99.90
2023-04-01T02:39:44.022Z,99.90
2023-04-01T02:42:11.432Z,99.90
2023-04-01T02:44:38.214Z,99.90
2023-04-01T02:47:05.488Z,99.90
2023-04-01T02:49:32.355Z,99.90
2023-04-01T02:51:59.058Z,99.90
2023-04-01T02:54:25.893Z,99.90
2023-04-01T02:56:52.775Z,99.90
2023-04-01T02:59:19.596Z,99.90
2023-04-01T03:01:46.386Z,99.90
2023-04-01T03:04:13.074Z,99.90
2023-04-01T03:06:39.728Z,99.90
2023-04-01T03:09:06.467Z,99.90
2023-04-01T03:11:33.516Z,99.90
2023-04-01T03:14:00.341Z,99.90
2023-04-01T03:16:27.143Z,99.90
2023-04-01T03:18:55.018Z,99.90
2023-04-01T03:21:23.917Z,99.90
2023-04-01T03:23:50.993Z,99.90
2023-04-01T03:26:18.273Z,99.90
2023-04-01T03:28:45.223Z,99.90
2023-04-01T03:31:12.379Z,99.90
2023-04-01T03:33:39.114Z,99.90
2023-04-01T03:36:07.384Z,99.90
2023-04-01T03:38:37.389Z,99.90
2023-04-01T03:41:04.523Z,99.90
2023-04-01T03:43:31.424Z,99.90
2023-04-01T03:45:59.082Z,99.90
2023-04-01T03:48:26.920Z,99.90
2023-04-01T03:50:53.795Z,99.90
2023-04-01T03:53:20.806Z,99.90
2023-04-01T03:55:47.794Z,99.90
2023-04-01T03:58:14.869Z,99.90
2023-04-01T04:00:41.732Z,99.90
2023-04-01T04:03:08.610Z,99.90
2023-04-01T04:05:36.139Z,99.90
2023-04-01T04:08:03.517Z,99.90
2023-04-01T04:10:30.392Z,99.90
2023-04-01T04:12:57.546Z,99.90
2023-04-01T04:15:24.491Z,99.90
2023-04-01T04:17:51.593Z,99.90
2023-04-01T04:20:18.509Z,99.90
2023-04-01T04:22:45.508Z,99.90
2023-04-01T04:25:12.202Z,99.90
2023-04-01T04:27:38.958Z,99.90
2023-04-01T04:30:07.593Z,99.90
2023-04-01T04:32:34.577Z,99.90
2023-04-01T04:35:01.376Z,99.90
2023-04-01T04:37:28.415Z,99.90
2023-04-01T04:39:55.431Z,99.90
2023-04-01T04:42:22.108Z,99.90
2023-04-01T04:44:48.879Z,99.90
2023-04-01T04:47:15.804Z,99.90
2023-04-01T04:49:42.538Z,99.90
2023-04-01T04:52:09.508Z,99.90
2023-04-01T04:54:36.298Z,99.90
2023-04-01T04:57:03.133Z,99.90
2023-04-01T04:59:30.155Z,99.90
2023-04-01T05:01:56.877Z,99.90
2023-04-01T05:04:23.553Z,99.90
2023-04-01T05:06:50.385Z,99.90
2023-04-01T05:09:17.092Z,99.90
2023-04-01T05:11:43.856Z,99.90
2023-04-01T05:14:15.689Z,99.90
2023-04-01T05:16:42.691Z,99.90
2023-04-01T05:19:09.486Z,99.90
2023-04-01T05:21:36.518Z,99.90
2023-04-01T05:24:03.385Z,99.90
2023-04-01T05:26:30.172Z,99.90
2023-04-01T05:28:56.952Z,99.90
2023-04-01T05:31:25.107Z,99.90
2023-04-01T05:33:52.118Z,99.90
2023-04-01T05:36:19.173Z,99.90
2023-04-01T05:38:47.400Z,99.90
2023-04-01T05:41:15.362Z,99.90
2023-04-01T05:43:43.185Z,99.90
2023-04-01T05:46:10.260Z,99.90
2023-04-01T05:48:37.047Z,99.90
2023-04-01T05:51:04.933Z,99.90
2023-04-01T05:53:31.919Z,99.90
2023-04-01T05:56:02.699Z,99.90
2023-04-01T05:58:29.486Z,99.90
2023-04-01T06:01:08.586Z,99.90
2023-04-01T06:03:38.345Z,99.90
2023-04-01T06:06:05.676Z,99.90
2023-04-01T06:08:33.061Z,99.90
2023-04-01T06:11:11.749Z,99.90
2023-04-01T06:14:01.657Z,99.90
2023-04-01T06:16:59.660Z,99.90
2023-04-01T06:19:48.976Z,99.90
2023-04-01T06:22:36.971Z,99.90
2023-04-01T06:25:27.804Z,99.90
2023-04-01T06:28:19.175Z,99.90
2023-04-01T06:31:10.649Z,99.90
2023-04-01T06:33:55.381Z,99.90
2023-04-01T06:36:37.227Z,99.90
2023-04-01T06:39:26.390Z,99.90
2023-04-01T06:42:14.915Z,99.90
2023-04-01T06:45:06.593Z,99.90
2023-04-01T06:47:51.315Z,99.90
2023-04-01T06:50:59.629Z,99.90
2023-04-01T06:53:55.796Z,99.90
2023-04-01T06:56:27.935Z,99.90
2023-04-01T06:59:02.110Z,99.90
2023-04-01T07:01:57.941Z,99.90
2023-04-01T07:04:27.605Z,99.90
2023-04-01T07:06:59.650Z,99.90
2023-04-01T07:12:23.519Z,99.90
2023-04-01T07:14:54.353Z,99.90
2023-04-01T07:17:27.469Z,99.90
2023-04-01T07:20:12.225Z,99.90
2023-04-01T07:22:45.883Z,99.90
2023-04-01T07:25:34.984Z,99.90
2023-04-01T07:28:06.188Z,99.90
2023-04-01T07:30:56.964Z,99.90
2023-04-01T07:34:01.250Z,99.90
2023-04-01T07:36:51.945Z,99.90
2023-04-01T07:39:56.908Z,99.90
2023-04-01T07:42:46.314Z,99.90
2023-04-01T07:45:32.839Z,99.90
2023-04-01T07:48:05.566Z,99.90
2023-04-01T07:50:56.993Z,99.90
2023-04-01T07:53:44.427Z,99.90
2023-04-01T07:56:18.611Z,99.90
2023-04-01T07:59:10.541Z,99.90
2023-04-01T08:02:19.120Z,99.90
2023-04-01T08:04:52.002Z,99.90
2023-04-01T08:07:25.111Z,99.90
2023-04-01T08:10:13.656Z,99.90
2023-04-01T08:13:01.479Z,99.90
2023-04-01T08:15:47.814Z,99.90
2023-04-01T08:18:38.042Z,99.90
2023-04-01T08:21:24.503Z,99.90
2023-04-01T08:23:56.101Z,99.90
2023-04-01T08:26:49.154Z,99.90
2023-04-01T08:29:31.525Z,99.90
2023-04-01T08:32:09.886Z,99.90
2023-04-01T08:34:42.874Z,99.90
2023-04-01T08:37:18.717Z,99.90
2023-04-01T08:39:57.464Z,99.90
2023-04-01T08:42:43.041Z,99.90
2023-04-01T08:45:31.894Z,99.90
2023-04-01T08:48:14.075Z,99.90
2023-04-01T08:50:50.446Z,99.90
2023-04-01T08:53:29.068Z,99.90
2023-04-01T08:56:19.316Z,99.90
2023-04-01T08:58:48.780Z,99.90
2023-04-01T09:01:36.653Z,99.90
2023-04-01T09:04:32.356Z,99.90
2023-04-01T09:07:09.445Z,99.90
2023-04-01T09:09:43.247Z,99.90
2023-04-01T09:12:28.109Z,99.90
2023-04-01T09:15:36.674Z,99.90
2023-04-01T09:18:22.258Z,99.90
2023-04-01T09:21:12.736Z,99.90
2023-04-01T09:24:00.370Z,99.90
2023-04-01T09:26:51.311Z,99.90
2023-04-01T09:29:39.758Z,99.90
2023-04-01T09:32:34.535Z,99.90
2023-04-01T09:35:17.860Z,99.90
2023-04-01T09:37:59.474Z,99.90
2023-04-01T09:40:38.626Z,99.90
2023-04-01T09:43:29.827Z,99.90
2023-04-01T09:46:11.866Z,99.90
2023-04-01T09:48:57.418Z,99.90
2023-04-01T09:51:33.407Z,99.90
2023-04-01T09:54:18.238Z,99.90
2023-04-01T09:57:02.646Z,99.90
2023-04-01T09:59:47.483Z,99.90
2023-04-01T10:02:42.409Z,99.90
2023-04-01T10:05:27.825Z,99.90
2023-04-01T10:08:38.954Z,99.90
2023-04-01T10:11:28.060Z,99.90
2023-04-01T10:14:13.632Z,99.90
2023-04-01T10:16:51.938Z,99.90
2023-04-01T10:19:57.760Z,99.90
2023-04-01T10:22:43.034Z,99.90
2023-04-01T10:25:27.600Z,99.90
2023-04-01T10:28:23.999Z,99.90
2023-04-01T10:31:03.794Z,99.90
2023-04-01T10:34:27.118Z,99.90
2023-04-01T10:37:10.200Z,99.90
2023-04-01T10:40:14.295Z,99.90
2023-04-01T10:43:12.402Z,99.90
2023-04-01T10:45:58.887Z,99.50
2023-04-01T10:48:47.653Z,99.70
2023-04-01T10:51:39.108Z,99.00
2023-04-01T10:54:16.875Z,97.90
2023-04-01T10:57:09.592Z,96.20
2023-04-01T11:00:00.969Z,96.90
2023-04-01T11:02:48.954Z,96.40
2023-04-01T11:06:00.545Z,94.70
2023-04-01T11:08:45.062Z,93.70
2023-04-01T11:11:43.172Z,93.80
2023-04-01T11:14:31.594Z,92.90
2023-04-01T11:17:07.704Z,94.10
2023-04-01T11:19:49.389Z,92.20
2023-04-01T11:22:47.363Z,85.00
2023-04-01T11:25:37.158Z,82.70
2023-04-01T11:28:12.809Z,76.00
2023-04-01T11:30:59.671Z,81.20
2023-04-01T11:33:39.518Z,78.00
2023-04-01T11:36:16.782Z,76.90
2023-04-01T11:38:43.585Z,77.30
2023-04-01T11:41:41.098Z,77.70
2023-04-01T11:44:28.250Z,78.50
2023-04-01T11:47:16.727Z,74.50
2023-04-01T11:50:22.105Z,72.10
2023-04-01T11:53:11.461Z,69.40
2023-04-01T11:55:49.149Z,64.40
2023-04-01T11:58:42.998Z,65.10
2023-04-01T12:01:45.001Z,62.20
2023-04-01T12:04:20.971Z,61.00
2023-04-01T12:07:03.104Z,57.90
2023-04-01T12:10:01.261Z,57.50
2023-04-01T12:12:58.000Z,57.80
2023-04-01T12:15:42.148Z,56.10
2023-04-01T12:18:34.082Z,52.40
2023-04-01T12:21:08.760Z,49.20
2023-04-01T12:24:04.539Z,50.10
2023-04-01T12:26:56.078Z,48.90
2023-04-01T12:29:50.559Z,44.40
2023-04-01T12:32:52.516Z,43.50
2023-04-01T12:35:22.466Z,45.20
2023-04-01T12:38:24.552Z,38.80
2023-04-01T12:41:11.901Z,35.50
2023-04-01T12:43:59.708Z,31.30
2023-04-01T12:46:35.633Z,29.60
2023-04-01T12:49:39.197Z,29.00
2023-04-01T12:52:16.805Z,31.10
2023-04-01T12:55:07.075Z,30.40
2023-04-01T12:58:04.556Z,25.70
2023-04-01T13:00:46.689Z,25.70
2023-04-01T13:03:38.608Z,24.40
2023-04-01T13:06:26.610Z,23.00
2023-04-01T13:09:20.463Z,23.50
2023-04-01T13:11:55.436Z,22.30
2023-04-01T13:14:43.728Z,22.20
2023-04-01T13:17:13.445Z,20.90
2023-04-01T13:19:48.576Z,21.00
2023-04-01T13:22:30.339Z,20.00
2023-04-01T13:25:11.728Z,21.90
2023-04-01T13:27:44.710Z,22.00
2023-04-01T13:30:39.102Z,22.10
2023-04-01T13:33:33.296Z,22.10
2023-04-01T13:36:36.265Z,21.50
2023-04-01T13:39:21.827Z,21.00
2023-04-01T13:42:17.542Z,21.00
2023-04-01T13:45:01.693Z,20.00
2023-04-01T13:47:55.233Z,19.70
2023-04-01T13:50:32.380Z,19.30
2023-04-01T13:53:33.790Z,19.40
2023-04-01T13:56:19.434Z,18.90
2023-04-01T13:59:25.328Z,19.00
2023-04-01T14:02:14.798Z,18.60
2023-04-01T14:05:00.200Z,19.50
2023-04-01T14:08:04.730Z,20.70
2023-04-01T14:10:55.468Z,21.30
2023-04-01T14:14:01.560Z,22.90
2023-04-01T14:17:05.746Z,24.80
2023-04-01T14:20:23.227Z,26.00
2023-04-01T14:23:14.841Z,27.20
2023-04-01T14:26:10.781Z,26.20
2023-04-01T14:28:43.844Z,26.20
2023-04-01T14:31:22.037Z,26.20
2023-04-01T14:34:07.439Z,26.80
2023-04-01T14:36:46.470Z,26.80
2023-04-01T14:39:16.189Z,27.40
2023-04-01T14:42:08.692Z,27.10
2023-04-01T14:44:44.804Z,27.80
2023-04-01T14:47:47.346Z,27.00
2023-04-01T14:50:23.931Z,27.10
2023-04-01T14:53:16.455Z,27.80
2023-04-01T14:55:43.362Z,27.90
2023-04-01T14:58:18.105Z,28.40
2023-04-01T15:01:01.388Z,28.40
2023-04-01T15:03:38.139Z,27.80
2023-04-01T15:06:26.738Z,28.00
2023-04-01T15:09:19.117Z,28.20
2023-04-01T15:12:17.544Z,27.80
2023-04-01T15:14:55.910Z,27.90
2023-04-01T15:17:57.322Z,27.90
2023-04-01T15:20:35.726Z,28.30
2023-04-01T15:23:14.176Z,28.90
2023-04-01T15:25:53.077Z,28.60
2023-04-01T15:28:33.370Z,29.00
2023-04-01T15:31:17.694Z,28.30
2023-04-01T15:34:10.826Z,28.40
2023-04-01T15:36:45.351Z,27.30
2023-04-01T15:39:23.939Z,24.60
2023-04-01T15:42:05.161Z,24.20
2023-04-01T15:44:33.937Z,24.30
2023-04-01T15:47:08.751Z,23.50
2023-04-01T15:49:44.322Z,24.00
2023-04-01T15:52:35.127Z,22.30
2023-04-01T15:55:13.849Z,22.00
2023-04-01T15:57:55.905Z,22.60
2023-04-01T16:00:31.988Z,22.60
2023-04-01T16:03:23.526Z,22.80
2023-04-01T16:05:59.583Z,22.70
2023-04-01T16:08:35.593Z,22.10
2023-04-01T16:11:23.254Z,22.20
2023-04-01T16:14:21.972Z,21.30
2023-04-01T16:16:55.004Z,21.30
2023-04-01T16:19:39.877Z,21.60
2023-04-01T16:22:24.073Z,20.40
2023-04-01T16:25:30.218Z,21.00
2023-04-01T16:28:28.847Z,21.30
2023-04-01T16:31:07.639Z,23.60
2023-04-01T16:33:42.174Z,23.80
2023-04-01T16:36:34.890Z,25.30
2023-04-01T16:39:16.985Z,26.60
2023-04-01T16:42:07.808Z,26.80
2023-04-01T16:45:02.044Z,27.00
2023-04-01T16:47:39.188Z,30.00
2023-04-01T16:50:24.605Z,30.10
2023-04-01T16:53:09.364Z,29.60
2023-04-01T16:56:06.093Z,28.20
2023-04-01T16:59:03.413Z,28.30
2023-04-01T17:01:51.553Z,28.80
2023-04-01T17:04:37.229Z,29.10
2023-04-01T17:07:12.907Z,28.90
2023-04-01T17:09:58.163Z,29.00
2023-04-01T17:12:33.564Z,29.20
2023-04-01T17:15:18.982Z,29.30
2023-04-01T17:18:27.878Z,29.30
2023-04-01T17:21:11.397Z,29.60
2023-04-01T17:24:01.655Z,29.70
2023-04-01T17:26:40.934Z,30.00
2023-04-01T17:29:34.256Z,30.10
2023-04-01T17:32:06.572Z,30.00
2023-04-01T17:34:54.801Z,30.00
2023-04-01T17:37:29.426Z,30.00
2023-04-01T17:40:34.284Z,30.00
2023-04-01T17:43:15.906Z,31.10
2023-04-01T17:45:58.492Z,33.20
2023-04-01T17:48:48.194Z,34.40
2023-04-01T17:52:11.950Z,35.00
2023-04-01T17:55:08.863Z,36.30
2023-04-01T17:58:04.186Z,37.50
2023-04-01T18:00:54.768Z,38.30
2023-04-01T18:03:46.904Z,38.40
2023-04-01T18:07:00.672Z,37.60
2023-04-01T18:09:33.157Z,39.00
2023-04-01T18:12:27.640Z,39.00
2023-04-01T18:15:22.698Z,38.50
2023-04-01T18:18:19.589Z,39.80
2023-04-01T18:21:03.143Z,39.60
2023-04-01T18:24:06.823Z,40.40
2023-04-01T18:26:37.213Z,41.90
2023-04-01T18:29:35.956Z,39.80
2023-04-01T18:32:37.771Z,40.90
2023-04-01T18:35:20.598Z,40.90
2023-04-01T18:38:04.066Z,41.70
2023-04-01T18:40:33.961Z,42.60
2023-04-01T18:43:40.795Z,42.80
2023-04-01T18:46:27.568Z,42.50
2023-04-01T18:49:16.062Z,43.00
2023-04-01T18:51:56.862Z,43.30
2023-04-01T18:54:33.157Z,44.20
2023-04-01T18:57:14.397Z,44.20
2023-04-01T18:59:46.308Z,43.50
2023-04-01T19:02:19.657Z,43.20
2023-04-01T19:04:51.657Z,44.10
2023-04-01T19:07:42.163Z,44.10
2023-04-01T19:10:29.197Z,44.40
2023-04-01T19:13:14.878Z,44.40
2023-04-01T19:15:58.043Z,44.30
2023-04-01T19:18:35.047Z,45.20
2023-04-01T19:21:29.365Z,47.80
2023-04-01T19:24:17.383Z,48.50
2023-04-01T19:26:59.588Z,49.00
2023-04-01T19:29:54.208Z,46.40
2023-04-01T19:32:40.232Z,46.60
2023-04-01T19:35:23.483Z,46.90
2023-04-01T19:38:16.835Z,48.30
2023-04-01T19:40:54.066Z,50.20
2023-04-01T19:43:40.385Z,50.20
2023-04-01T19:46:18.313Z,49.20
2023-04-01T19:49:08.417Z,50.00
2023-04-01T19:52:06.938Z,51.60
2023-04-01T19:54:47.432Z,51.10
2023-04-01T19:57:22.812Z,51.60
2023-04-01T20:00:03.269Z,52.10
2023-04-01T20:03:01.855Z,50.40
2023-04-01T20:05:49.953Z,50.40
2023-04-01T20:08:39.658Z,51.00
2023-04-01T20:11:22.275Z,50.40
2023-04-01T20:14:13.747Z,49.40
2023-04-01T20:16:59.592Z,50.60
2023-04-01T20:19:53.987Z,49.00
2023-04-01T20:22:29.316Z,47.30
2023-04-01T20:25:02.673Z,45.60
2023-04-01T20:27:36.864Z,46.20
2023-04-01T20:30:32.630Z,46.40
2023-04-01T20:33:22.489Z,46.20
2023-04-01T20:36:05.134Z,45.70
2023-04-01T20:38:54.096Z,45.50
2023-04-01T20:41:23.783Z,47.40
2023-04-01T20:44:12.063Z,47.80
2023-04-01T20:46:48.105Z,47.90
2023-04-01T20:49:38.305Z,46.40
2023-04-01T20:52:14.045Z,47.90
2023-04-01T20:54:50.088Z,48.20
2023-04-01T20:57:26.361Z,48.20
2023-04-01T21:00:21.314Z,48.90
2023-04-01T21:03:03.851Z,48.70
2023-04-01T21:06:19.044Z,50.30
2023-04-01T21:08:54.440Z,49.00
2023-04-01T21:11:29.664Z,47.00
2023-04-01T21:14:36.961Z,47.20
2023-04-01T21:17:13.809Z,46.70
2023-04-01T21:20:19.087Z,46.80
2023-04-01T21:23:07.482Z,46.80
2023-04-01T21:26:08.923Z,46.60
2023-04-01T21:28:52.526Z,45.70
2023-04-01T21:31:23.943Z,45.70
2023-04-01T21:34:31.840Z,45.60
2023-04-01T21:37:19.614Z,44.80
2023-04-01T21:39:59.247Z,44.80
2023-04-01T21:42:28.682Z,44.50
2023-04-01T21:45:03.148Z,44.70
2023-04-01T21:48:04.516Z,44.70
2023-04-01T21:50:49.060Z,44.70
2023-04-01T21:53:57.848Z,44.70
2023-04-01T21:57:00.475Z,44.90
2023-04-01T21:59:30.121Z,44.60
2023-04-01T22:02:26.493Z,45.00
2023-04-01T22:04:53.723Z,45.20
2023-04-01T22:07:26.895Z,45.50
2023-04-01T22:09:59.762Z,46.00
2023-04-01T22:12:48.055Z,46.40
2023-04-01T22:16:04.499Z,46.70
2023-04-01T22:18:35.088Z,46.80
2023-04-01T22:21:28.344Z,46.80
2023-04-01T22:24:04.247Z,46.80
2023-04-01T22:26:52.378Z,46.70
2023-04-01T22:29:48.096Z,46.90
2023-04-01T22:32:20.977Z,46.90
2023-04-01T22:34:58.879Z,46.70
2023-04-01T22:37:54.023Z,46.60
2023-04-01T22:40:36.490Z,46.70
2023-04-01T22:43:09.113Z,46.70
2023-04-01T22:46:11.576Z,46.80
2023-04-01T22:48:58.825Z,46.90
2023-04-01T22:52:07.659Z,47.00
2023-04-01T22:54:47.937Z,47.20
2023-04-01T22:57:20.418Z,47.10
2023-04-01T22:59:59.652Z,47.20
2023-04-01T23:02:38.227Z,47.40
2023-04-01T23:05:07.348Z,47.80
2023-04-01T23:08:01.435Z,47.70
2023-04-01T23:10:45.016Z,48.40
2023-04-01T23:13:20.623Z,48.90
2023-04-01T23:15:48.710Z,50.30
2023-04-01T23:18:21.393Z,50.50
2023-04-01T23:21:16.662Z,50.50
2023-04-01T23:23:46.334Z,50.60
2023-04-01T23:26:16.077Z,51.20
2023-04-01T23:29:01.232Z,51.70
2023-04-01T23:31:33.129Z,52.70
2023-04-01T23:34:24.956Z,53.40
2023-04-01T23:36:54.881Z,54.30
2023-04-01T23:39:27.625Z,54.30
2023-04-01T23:42:06.974Z,54.60
2023-04-01T23:44:36.120Z,55.10
2023-04-01T23:47:05.039Z,55.80
2023-04-01T23:49:39.654Z,55.70
2023-04-01T23:52:23.113Z,56.60
2023-04-01T23:55:05.194Z,57.40
2023-04-01T23:57:34.253Z,56.70
